sensor_id;sensor_type;location;lat;lon;timestamp;temperature;humidity
38131;DHT22;23947;51.894;4.622;2023-04-03T00:01:33;4.50;1.40
38131;DHT22;23947;51.894;4.622;2023-04-03T00:03:58;4.50;1.40
38131;DHT22;23947;51.894;4.622;2023-04-03T00:06:25;4.50;1.40
38131;DHT22;23947;51.894;4.622;2023-04-03T00:08:51;4.50;1.40
38131;DHT22;23947;51.894;4.622;2023-04-03T00:11:17;4.50;1.40
38131;DHT22;23947;51.894;4.622;2023-04-03T00:13:43;4.40;1.40
38131;DHT22;23947;51.894;4.622;2023-04-03T00:16:10;4.40;1.40
38131;DHT22;23947;51.894;4.622;2023-04-03T00:18:36;4.40;1.40
38131;DHT22;23947;51.894;4.622;2023-04-03T00:21:03;4.40;1.40
38131;DHT22;23947;51.894;4.622;2023-04-03T00:23:29;4.40;1.40
38131;DHT22;23947;51.894;4.622;2023-04-03T00:25:55;4.40;1.40
38131;DHT22;23947;51.894;4.622;2023-04-03T00:28:21;4.30;1.40
38131;DHT22;23947;51.894;4.622;2023-04-03T00:30:49;4.30;1.40
38131;DHT22;23947;51.894;4.622;2023-04-03T00:33:15;4.30;1.40
38131;DHT22;23947;51.894;4.622;2023-04-03T00:35:41;4.20;1.40
38131;DHT22;23947;51.894;4.622;2023-04-03T00:38:07;4.20;1.40
38131;DHT22;23947;51.894;4.622;2023-04-03T00:40:35;4.20;1.40
38131;DHT22;23947;51.894;4.622;2023-04-03T00:43:01;4.10;1.40
38131;DHT22;23947;51.894;4.622;2023-04-03T00:45:34;4.10;1.40
38131;DHT22;23947;51.894;4.622;2023-04-03T00:48:01;4.10;1.40
38131;DHT22;23947;51.894;4.622;2023-04-03T00:50:29;4.10;1.40
38131;DHT22;23947;51.894;4.622;2023-04-03T00:52:56;4.10;1.40
38131;DHT22;23947;51.894;4.622;2023-04-03T00:55:22;4.00;1.40
38131;DHT22;23947;51.894;4.622;2023-04-03T00:57:49;4.00;1.40
38131;DHT22;23947;51.894;4.622;2023-04-03T01:00:17;3.90;1.40
38131;DHT22;23947;51.894;4.622;2023-04-03T01:02:44;3.90;1.40
38131;DHT22;23947;51.894;4.622;2023-04-03T01:05:11;3.80;1.40
38131;DHT22;23947;51.894;4.622;2023-04-03T01:07:37;3.90;1.40
38131;DHT22;23947;51.894;4.622;2023-04-03T01:10:07;3.80;1.40
38131;DHT22;23947;51.894;4.622;2023-04-03T01:12:35;3.80;1.40
38131;DHT22;23947;51.894;4.622;2023-04-03T01:15:07;3.80;1.40
38131;DHT22;23947;51.894;4.622;2023-04-03T01:17:38;3.70;1.40
38131;DHT22;23947;51.894;4.622;2023-04-03T01:25:37;3.70;1.40
38131;DHT22;23947;51.894;4.622;2023-04-03T01:28:04;3.70;1.40
38131;DHT22;23947;51.894;4.622;2023-04-03T01:30:34;3.70;1.40
38131;DHT22;23947;51.894;4.622;2023-04-03T01:33:01;3.70;1.40
38131;DHT22;23947;51.894;4.622;2023-04-03T01:35:27;3.60;1.40
38131;DHT22;23947;51.894;4.622;2023-04-03T01:37:53;3.60;1.40
38131;DHT22;23947;51.894;4.622;2023-04-03T01:40:18;3.60;1.40
38131;DHT22;23947;51.894;4.622;2023-04-03T01:42:44;3.60;1.40
38131;DHT22;23947;51.894;4.622;2023-04-03T01:45:10;3.50;1.40
38131;DHT22;23947;51.894;4.622;2023-04-03T01:47:36;3.50;1.40
38131;DHT22;23947;51.894;4.622;2023-04-03T01:50:02;3.40;1.40
38131;DHT22;23947;51.894;4.622;2023-04-03T01:52:27;3.40;1.40
38131;DHT22;23947;51.894;4.622;2023-04-03T01:54:53;3.40;1.40
38131;DHT22;23947;51.894;4.622;2023-04-03T01:57:19;3.30;1.40
38131;DHT22;23947;51.894;4.622;2023-04-03T01:59:44;3.30;1.40
38131;DHT22;23947;51.894;4.622;2023-04-03T02:02:10;3.20;1.40
38131;DHT22;23947;51.894;4.622;2023-04-03T02:04:37;3.20;1.40
38131;DHT22;23947;51.894;4.622;2023-04-03T02:07:03;3.20;1.40
38131;DHT22;23947;51.894;4.622;2023-04-03T02:09:29;3.10;1.40
38131;DHT22;23947;51.894;4.622;2023-04-03T02:11:54;3.10;1.40
38131;DHT22;23947;51.894;4.622;2023-04-03T02:14:20;3.10;1.40
38131;DHT22;23947;51.894;4.622;2023-04-03T02:16:49;3.10;1.40
38131;DHT22;23947;51.894;4.622;2023-04-03T02:19:15;3.00;1.40
38131;DHT22;23947;51.894;4.622;2023-04-03T02:21:40;3.00;1.40
38131;DHT22;23947;51.894;4.622;2023-04-03T02:24:06;3.00;1.40
38131;DHT22;23947;51.894;4.622;2023-04-03T02:26:32;3.00;1.40
38131;DHT22;23947;51.894;4.622;2023-04-03T02:28:58;2.90;1.40
38131;DHT22;23947;51.894;4.622;2023-04-03T02:31:23;2.80;1.40
38131;DHT22;23947;51.894;4.622;2023-04-03T02:33:49;2.80;1.40
38131;DHT22;23947;51.894;4.622;2023-04-03T02:36:15;2.80;1.40
38131;DHT22;23947;51.894;4.622;2023-04-03T02:38:41;2.80;1.40
38131;DHT22;23947;51.894;4.622;2023-04-03T02:41:09;2.80;1.40
38131;DHT22;23947;51.894;4.622;2023-04-03T02:43:35;2.70;1.40
38131;DHT22;23947;51.894;4.622;2023-04-03T02:46:01;2.70;1.40
38131;DHT22;23947;51.894;4.622;2023-04-03T02:48:27;2.70;1.40
38131;DHT22;23947;51.894;4.622;2023-04-03T02:50:53;2.70;1.40
38131;DHT22;23947;51.894;4.622;2023-04-03T02:53:19;2.70;1.40
38131;DHT22;23947;51.894;4.622;2023-04-03T02:55:45;2.60;1.40
38131;DHT22;23947;51.894;4.622;2023-04-03T02:58:11;2.60;1.40
38131;DHT22;23947;51.894;4.622;2023-04-03T03:00:37;2.60;1.40
38131;DHT22;23947;51.894;4.622;2023-04-03T03:03:03;2.50;1.40
38131;DHT22;23947;51.894;4.622;2023-04-03T03:05:29;2.50;1.40
38131;DHT22;23947;51.894;4.622;2023-04-03T03:07:55;2.50;1.40
38131;DHT22;23947;51.894;4.622;2023-04-03T03:10:21;2.50;1.40
38131;DHT22;23947;51.894;4.622;2023-04-03T03:12:47;2.50;1.40
38131;DHT22;23947;51.894;4.622;2023-04-03T03:15:13;2.50;1.40
38131;DHT22;23947;51.894;4.622;2023-04-03T03:17:38;2.50;1.40
38131;DHT22;23947;51.894;4.622;2023-04-03T03:20:05;2.50;1.40
38131;DHT22;23947;51.894;4.622;2023-04-03T03:22:31;2.50;1.40
38131;DHT22;23947;51.894;4.622;2023-04-03T03:24:57;2.50;1.40
38131;DHT22;23947;51.894;4.622;2023-04-03T03:27:23;2.60;1.40
38131;DHT22;23947;51.894;4.622;2023-04-03T03:29:49;2.60;1.40
38131;DHT22;23947;51.894;4.622;2023-04-03T03:32:15;2.60;1.40
38131;DHT22;23947;51.894;4.622;2023-04-03T03:34:40;2.50;1.40
38131;DHT22;23947;51.894;4.622;2023-04-03T03:37:06;2.50;1.40
38131;DHT22;23947;51.894;4.622;2023-04-03T03:39:32;2.50;1.40
38131;DHT22;23947;51.894;4.622;2023-04-03T03:41:57;2.40;1.40
38131;DHT22;23947;51.894;4.622;2023-04-03T03:44:23;2.40;1.40
38131;DHT22;23947;51.894;4.622;2023-04-03T03:46:49;2.40;1.40
38131;DHT22;23947;51.894;4.622;2023-04-03T03:49:14;2.30;1.40
38131;DHT22;23947;51.894;4.622;2023-04-03T03:51:40;2.40;1.40
38131;DHT22;23947;51.894;4.622;2023-04-03T03:54:06;2.30;1.40
38131;DHT22;23947;51.894;4.622;2023-04-03T03:56:33;2.20;1.40
38131;DHT22;23947;51.894;4.622;2023-04-03T03:58:58;2.20;1.40
38131;DHT22;23947;51.894;4.622;2023-04-03T04:01:24;2.20;1.40
38131;DHT22;23947;51.894;4.622;2023-04-03T04:03:51;2.20;1.40
38131;DHT22;23947;51.894;4.622;2023-04-03T04:06:17;2.20;1.40
38131;DHT22;23947;51.894;4.622;2023-04-03T04:08:42;2.20;1.40
38131;DHT22;23947;51.894;4.622;2023-04-03T04:11:08;2.20;1.40
38131;DHT22;23947;51.894;4.622;2023-04-03T04:13:34;2.10;1.40
38131;DHT22;23947;51.894;4.622;2023-04-03T04:16:00;2.10;1.40
38131;DHT22;23947;51.894;4.622;2023-04-03T04:18:26;2.10;1.40
38131;DHT22;23947;51.894;4.622;2023-04-03T04:20:51;2.10;1.40
38131;DHT22;23947;51.894;4.622;2023-04-03T04:23:18;2.10;1.40
38131;DHT22;23947;51.894;4.622;2023-04-03T04:25:47;2.10;1.40
38131;DHT22;23947;51.894;4.622;2023-04-03T04:28:14;2.00;1.40
38131;DHT22;23947;51.894;4.622;2023-04-03T04:30:40;2.00;1.40
38131;DHT22;23947;51.894;4.622;2023-04-03T04:33:06;1.90;1.40
38131;DHT22;23947;51.894;4.622;2023-04-03T04:35:32;1.90;1.40
38131;DHT22;23947;51.894;4.622;2023-04-03T04:37:58;1.90;1.40
38131;DHT22;23947;51.894;4.622;2023-04-03T04:40:24;1.90;1.40
38131;DHT22;23947;51.894;4.622;2023-04-03T04:42:49;1.90;1.40
38131;DHT22;23947;51.894;4.622;2023-04-03T04:45:15;1.90;1.40
38131;DHT22;23947;51.894;4.622;2023-04-03T04:47:41;1.80;1.40
38131;DHT22;23947;51.894;4.622;2023-04-03T04:50:07;1.80;1.40
38131;DHT22;23947;51.894;4.622;2023-04-03T04:52:33;1.80;1.40
38131;DHT22;23947;51.894;4.622;2023-04-03T04:54:58;1.80;1.40
38131;DHT22;23947;51.894;4.622;2023-04-03T04:57:25;1.80;1.40
38131;DHT22;23947;51.894;4.622;2023-04-03T04:59:50;1.80;1.40
38131;DHT22;23947;51.894;4.622;2023-04-03T05:02:16;1.80;1.40
38131;DHT22;23947;51.894;4.622;2023-04-03T05:04:41;1.80;1.40
38131;DHT22;23947;51.894;4.622;2023-04-03T05:07:07;1.70;1.40
38131;DHT22;23947;51.894;4.622;2023-04-03T05:09:33;1.70;1.40
38131;DHT22;23947;51.894;4.622;2023-04-03T05:11:58;1.60;1.40
38131;DHT22;23947;51.894;4.622;2023-04-03T05:14:24;1.70;1.40
38131;DHT22;23947;51.894;4.622;2023-04-03T05:16:50;1.70;1.40
38131;DHT22;23947;51.894;4.622;2023-04-03T05:19:19;1.60;1.40
38131;DHT22;23947;51.894;4.622;2023-04-03T05:21:45;1.70;1.40
38131;DHT22;23947;51.894;4.622;2023-04-03T05:24:11;1.60;1.40
38131;DHT22;23947;51.894;4.622;2023-04-03T05:26:37;1.70;1.40
38131;DHT22;23947;51.894;4.622;2023-04-03T05:29:03;1.60;1.40
38131;DHT22;23947;51.894;4.622;2023-04-03T05:31:29;1.60;1.40
38131;DHT22;23947;51.894;4.622;2023-04-03T05:33:55;1.60;1.40
38131;DHT22;23947;51.894;4.622;2023-04-03T05:36:21;1.60;1.40
38131;DHT22;23947;51.894;4.622;2023-04-03T05:38:47;1.60;1.40
38131;DHT22;23947;51.894;4.622;2023-04-03T05:41:14;1.60;1.40
38131;DHT22;23947;51.894;4.622;2023-04-03T05:43:40;1.60;1.40
38131;DHT22;23947;51.894;4.622;2023-04-03T05:46:16;1.60;1.40
38131;DHT22;23947;51.894;4.622;2023-04-03T05:48:43;1.60;1.40
38131;DHT22;23947;51.894;4.622;2023-04-03T05:51:16;1.60;1.40
38131;DHT22;23947;51.894;4.622;2023-04-03T05:53:43;1.70;1.40
38131;DHT22;23947;51.894;4.622;2023-04-03T05:56:09;1.70;1.40
38131;DHT22;23947;51.894;4.622;2023-04-03T05:58:35;1.70;1.40
38131;DHT22;23947;51.894;4.622;2023-04-03T06:01:00;1.80;1.40
38131;DHT22;23947;51.894;4.622;2023-04-03T06:03:26;1.80;1.40
38131;DHT22;23947;51.894;4.622;2023-04-03T06:05:52;1.80;1.40
38131;DHT22;23947;51.894;4.622;2023-04-03T06:08:18;1.80;1.40
38131;DHT22;23947;51.894;4.622;2023-04-03T06:10:44;1.90;1.40
38131;DHT22;23947;51.894;4.622;2023-04-03T06:13:10;1.90;1.40
38131;DHT22;23947;51.894;4.622;2023-04-03T06:15:36;1.90;1.40
38131;DHT22;23947;51.894;4.622;2023-04-03T06:18:02;1.90;1.40
38131;DHT22;23947;51.894;4.622;2023-04-03T06:20:28;2.00;1.40
38131;DHT22;23947;51.894;4.622;2023-04-03T06:22:53;2.00;1.40
38131;DHT22;23947;51.894;4.622;2023-04-03T06:25:19;2.00;1.40
38131;DHT22;23947;51.894;4.622;2023-04-03T06:27:45;2.10;1.40
38131;DHT22;23947;51.894;4.622;2023-04-03T06:30:11;2.20;1.40
38131;DHT22;23947;51.894;4.622;2023-04-03T06:32:37;2.20;1.40
38131;DHT22;23947;51.894;4.622;2023-04-03T06:35:04;2.30;1.40
38131;DHT22;23947;51.894;4.622;2023-04-03T06:37:30;2.50;1.40
38131;DHT22;23947;51.894;4.622;2023-04-03T06:39:56;2.60;1.40
38131;DHT22;23947;51.894;4.622;2023-04-03T06:42:22;2.70;1.40
38131;DHT22;23947;51.894;4.622;2023-04-03T06:44:48;2.80;1.40
38131;DHT22;23947;51.894;4.622;2023-04-03T06:47:15;2.90;1.40
38131;DHT22;23947;51.894;4.622;2023-04-03T06:49:41;3.00;1.40
38131;DHT22;23947;51.894;4.622;2023-04-03T06:52:07;3.00;1.40
38131;DHT22;23947;51.894;4.622;2023-04-03T06:54:33;3.10;1.40
38131;DHT22;23947;51.894;4.622;2023-04-03T06:56:59;3.20;1.40
38131;DHT22;23947;51.894;4.622;2023-04-03T06:59:25;3.20;1.40
38131;DHT22;23947;51.894;4.622;2023-04-03T07:01:50;3.20;1.40
38131;DHT22;23947;51.894;4.622;2023-04-03T07:04:17;3.30;1.40
38131;DHT22;23947;51.894;4.622;2023-04-03T07:06:43;3.30;1.40
38131;DHT22;23947;51.894;4.622;2023-04-03T07:09:10;3.40;1.40
38131;DHT22;23947;51.894;4.622;2023-04-03T07:11:36;3.50;1.40
38131;DHT22;23947;51.894;4.622;2023-04-03T07:14:02;3.50;1.40
38131;DHT22;23947;51.894;4.622;2023-04-03T07:16:28;3.60;1.40
38131;DHT22;23947;51.894;4.622;2023-04-03T07:18:56;3.60;1.40
38131;DHT22;23947;51.894;4.622;2023-04-03T07:21:22;3.70;1.40
38131;DHT22;23947;51.894;4.622;2023-04-03T07:23:48;3.70;1.40
38131;DHT22;23947;51.894;4.622;2023-04-03T07:26:14;3.70;1.40
38131;DHT22;23947;51.894;4.622;2023-04-03T07:28:39;3.80;1.40
38131;DHT22;23947;51.894;4.622;2023-04-03T07:31:08;3.80;1.40
38131;DHT22;23947;51.894;4.622;2023-04-03T07:33:36;3.80;1.40
38131;DHT22;23947;51.894;4.622;2023-04-03T07:36:03;3.90;1.40
38131;DHT22;23947;51.894;4.622;2023-04-03T07:38:28;3.90;1.40
38131;DHT22;23947;51.894;4.622;2023-04-03T07:40:54;3.90;1.40
38131;DHT22;23947;51.894;4.622;2023-04-03T07:43:21;4.00;1.40
38131;DHT22;23947;51.894;4.622;2023-04-03T07:45:48;4.10;1.40
38131;DHT22;23947;51.894;4.622;2023-04-03T07:48:24;4.10;1.40
38131;DHT22;23947;51.894;4.622;2023-04-03T07:50:50;4.20;1.40
38131;DHT22;23947;51.894;4.622;2023-04-03T07:53:17;4.20;1.40
38131;DHT22;23947;51.894;4.622;2023-04-03T07:55:42;4.30;1.40
38131;DHT22;23947;51.894;4.622;2023-04-03T07:58:13;4.40;1.40
38131;DHT22;23947;51.894;4.622;2023-04-03T08:00:40;4.40;1.40
38131;DHT22;23947;51.894;4.622;2023-04-03T08:03:07;4.40;1.40
38131;DHT22;23947;51.894;4.622;2023-04-03T08:05:37;4.50;1.40
38131;DHT22;23947;51.894;4.622;2023-04-03T08:08:03;4.50;1.40
38131;DHT22;23947;51.894;4.622;2023-04-03T08:10:30;4.50;1.40
38131;DHT22;23947;51.894;4.622;2023-04-03T08:12:56;4.70;1.40
38131;DHT22;23947;51.894;4.622;2023-04-03T08:15:22;4.70;1.40
38131;DHT22;23947;51.894;4.622;2023-04-03T08:17:48;4.70;1.40
38131;DHT22;23947;51.894;4.622;2023-04-03T08:20:14;4.80;1.40
38131;DHT22;23947;51.894;4.622;2023-04-03T08:22:40;4.90;1.40
38131;DHT22;23947;51.894;4.622;2023-04-03T08:25:06;5.00;1.40
38131;DHT22;23947;51.894;4.622;2023-04-03T08:27:32;5.00;1.40
38131;DHT22;23947;51.894;4.622;2023-04-03T08:29:57;5.10;1.40
38131;DHT22;23947;51.894;4.622;2023-04-03T08:32:23;5.10;1.40
38131;DHT22;23947;51.894;4.622;2023-04-03T08:34:49;5.20;1.40
38131;DHT22;23947;51.894;4.622;2023-04-03T08:37:15;5.20;1.40
38131;DHT22;23947;51.894;4.622;2023-04-03T08:39:42;5.30;1.40
38131;DHT22;23947;51.894;4.622;2023-04-03T08:44:59;5.40;1.40
38131;DHT22;23947;51.894;4.622;2023-04-03T08:47:40;5.50;1.40
38131;DHT22;23947;51.894;4.622;2023-04-03T08:50:17;5.60;1.40
38131;DHT22;23947;51.894;4.622;2023-04-03T08:53:02;5.60;1.40
38131;DHT22;23947;51.894;4.622;2023-04-03T08:58:09;5.70;1.40
38131;DHT22;23947;51.894;4.622;2023-04-03T09:01:05;5.80;1.40
38131;DHT22;23947;51.894;4.622;2023-04-03T09:03:38;5.80;1.40
38131;DHT22;23947;51.894;4.622;2023-04-03T09:06:06;5.90;1.40
38131;DHT22;23947;51.894;4.622;2023-04-03T09:08:51;6.00;1.40
38131;DHT22;23947;51.894;4.622;2023-04-03T09:11:54;6.00;1.40
38131;DHT22;23947;51.894;4.622;2023-04-03T09:14:50;6.00;1.40
38131;DHT22;23947;51.894;4.622;2023-04-03T09:20:29;6.10;1.40
38131;DHT22;23947;51.894;4.622;2023-04-03T09:22:57;6.20;1.40
38131;DHT22;23947;51.894;4.622;2023-04-03T09:25:27;6.20;1.40
38131;DHT22;23947;51.894;4.622;2023-04-03T09:27:53;6.30;1.40
38131;DHT22;23947;51.894;4.622;2023-04-03T09:30:24;6.40;1.40
38131;DHT22;23947;51.894;4.622;2023-04-03T09:32:52;6.50;1.40
38131;DHT22;23947;51.894;4.622;2023-04-03T09:35:26;6.60;1.40
38131;DHT22;23947;51.894;4.622;2023-04-03T09:37:58;6.60;1.40
38131;DHT22;23947;51.894;4.622;2023-04-03T09:42:58;6.70;1.40
38131;DHT22;23947;51.894;4.622;2023-04-03T09:45:32;6.70;1.40
38131;DHT22;23947;51.894;4.622;2023-04-03T09:51:01;6.90;1.40
38131;DHT22;23947;51.894;4.622;2023-04-03T09:53:32;7.00;1.40
38131;DHT22;23947;51.894;4.622;2023-04-03T09:56:00;7.00;1.40
38131;DHT22;23947;51.894;4.622;2023-04-03T10:01:36;7.10;1.40
38131;DHT22;23947;51.894;4.622;2023-04-03T10:04:12;7.20;99.90
38131;DHT22;23947;51.894;4.622;2023-04-03T10:12:10;7.30;99.90
38131;DHT22;23947;51.894;4.622;2023-04-03T10:14:58;7.30;99.90
38131;DHT22;23947;51.894;4.622;2023-04-03T10:17:41;7.30;99.90
38131;DHT22;23947;51.894;4.622;2023-04-03T10:20:39;7.40;99.90
38131;DHT22;23947;51.894;4.622;2023-04-03T10:23:24;7.40;99.90
38131;DHT22;23947;51.894;4.622;2023-04-03T10:26:02;7.50;1.40
38131;DHT22;23947;51.894;4.622;2023-04-03T10:28:48;7.60;1.40
38131;DHT22;23947;51.894;4.622;2023-04-03T10:31:44;7.70;1.40
38131;DHT22;23947;51.894;4.622;2023-04-03T10:36:51;7.70;35.70
38131;DHT22;23947;51.894;4.622;2023-04-03T10:47:27;7.90;1.00
38131;DHT22;23947;51.894;4.622;2023-04-03T10:50:00;7.90;1.00
38131;DHT22;23947;51.894;4.622;2023-04-03T10:52:37;7.90;1.00
38131;DHT22;23947;51.894;4.622;2023-04-03T10:57:56;8.10;1.00
38131;DHT22;23947;51.894;4.622;2023-04-03T11:00:33;8.10;1.00
38131;DHT22;23947;51.894;4.622;2023-04-03T11:03:05;8.30;1.00
38131;DHT22;23947;51.894;4.622;2023-04-03T11:05:39;8.30;1.00
38131;DHT22;23947;51.894;4.622;2023-04-03T11:08:19;8.50;1.00
38131;DHT22;23947;51.894;4.622;2023-04-03T11:10:49;8.50;1.00
38131;DHT22;23947;51.894;4.622;2023-04-03T11:13:22;8.60;1.00
38131;DHT22;23947;51.894;4.622;2023-04-03T11:15:53;8.60;1.00
38131;DHT22;23947;51.894;4.622;2023-04-03T11:21:01;9.00;1.00
38131;DHT22;23947;51.894;4.622;2023-04-03T11:23:36;9.20;1.00
38131;DHT22;23947;51.894;4.622;2023-04-03T11:26:11;9.40;1.00
38131;DHT22;23947;51.894;4.622;2023-04-03T11:28:37;9.60;1.00
38131;DHT22;23947;51.894;4.622;2023-04-03T11:32:09;9.70;1.00
38131;DHT22;23947;51.894;4.622;2023-04-03T11:34:33;10.00;1.00
38131;DHT22;23947;51.894;4.622;2023-04-03T11:37:05;10.10;1.00
38131;DHT22;23947;51.894;4.622;2023-04-03T11:39:34;10.40;1.00
38131;DHT22;23947;51.894;4.622;2023-04-03T11:48:00;11.00;1.00
38131;DHT22;23947;51.894;4.622;2023-04-03T11:50:40;11.20;1.00
38131;DHT22;23947;51.894;4.622;2023-04-03T12:05:48;11.40;1.00
38131;DHT22;23947;51.894;4.622;2023-04-03T12:08:27;11.50;1.00
38131;DHT22;23947;51.894;4.622;2023-04-03T12:13:40;11.50;1.00
38131;DHT22;23947;51.894;4.622;2023-04-03T12:16:18;11.60;1.00
38131;DHT22;23947;51.894;4.622;2023-04-03T12:43:46;11.70;1.00
38131;DHT22;23947;51.894;4.622;2023-04-03T12:46:19;11.80;1.00
38131;DHT22;23947;51.894;4.622;2023-04-03T12:48:55;11.90;1.00
38131;DHT22;23947;51.894;4.622;2023-04-03T12:51:33;11.90;1.00
38131;DHT22;23947;51.894;4.622;2023-04-03T12:54:30;12.00;1.00
38131;DHT22;23947;51.894;4.622;2023-04-03T12:57:18;12.10;1.00
38131;DHT22;23947;51.894;4.622;2023-04-03T12:59:44;12.10;1.00
38131;DHT22;23947;51.894;4.622;2023-04-03T13:02:30;12.10;1.00
38131;DHT22;23947;51.894;4.622;2023-04-03T13:05:17;12.20;1.00
38131;DHT22;23947;51.894;4.622;2023-04-03T13:07:44;12.10;1.00
38131;DHT22;23947;51.894;4.622;2023-04-03T13:10:16;12.20;1.00
38131;DHT22;23947;51.894;4.622;2023-04-03T13:12:54;12.20;1.00
38131;DHT22;23947;51.894;4.622;2023-04-03T13:15:39;12.10;1.00
38131;DHT22;23947;51.894;4.622;2023-04-03T13:18:05;12.20;1.00
38131;DHT22;23947;51.894;4.622;2023-04-03T13:20:48;12.20;1.00
38131;DHT22;23947;51.894;4.622;2023-04-03T13:23:17;12.60;1.00
38131;DHT22;23947;51.894;4.622;2023-04-03T13:25:46;13.00;1.00
38131;DHT22;23947;51.894;4.622;2023-04-03T13:28:15;13.30;1.00
38131;DHT22;23947;51.894;4.622;2023-04-03T13:30:53;13.40;1.00
38131;DHT22;23947;51.894;4.622;2023-04-03T13:33:26;13.50;1.00
38131;DHT22;23947;51.894;4.622;2023-04-03T13:36:20;13.60;1.00
38131;DHT22;23947;51.894;4.622;2023-04-03T13:39:02;13.80;1.00
38131;DHT22;23947;51.894;4.622;2023-04-03T13:41:37;13.50;1.00
38131;DHT22;23947;51.894;4.622;2023-04-03T13:51:56;13.30;1.00
38131;DHT22;23947;51.894;4.622;2023-04-03T13:54:31;13.20;1.00
38131;DHT22;23947;51.894;4.622;2023-04-03T13:56:58;12.90;1.00
38131;DHT22;23947;51.894;4.622;2023-04-03T13:59:32;12.80;1.00
38131;DHT22;23947;51.894;4.622;2023-04-03T14:04:32;12.60;1.00
38131;DHT22;23947;51.894;4.622;2023-04-03T14:06:58;12.50;1.00
38131;DHT22;23947;51.894;4.622;2023-04-03T14:09:26;12.50;1.00
38131;DHT22;23947;51.894;4.622;2023-04-03T14:11:55;12.40;1.00
38131;DHT22;23947;51.894;4.622;2023-04-03T14:14:23;12.50;1.00
38131;DHT22;23947;51.894;4.622;2023-04-03T14:16:58;12.50;1.00
38131;DHT22;23947;51.894;4.622;2023-04-03T14:19:33;12.70;1.00
38131;DHT22;23947;51.894;4.622;2023-04-03T14:22:00;12.60;1.00
38131;DHT22;23947;51.894;4.622;2023-04-03T14:24:26;12.50;1.00
38131;DHT22;23947;51.894;4.622;2023-04-03T14:26:54;12.50;1.00
38131;DHT22;23947;51.894;4.622;2023-04-03T14:29:20;12.70;1.00
38131;DHT22;23947;51.894;4.622;2023-04-03T14:31:47;12.70;1.00
38131;DHT22;23947;51.894;4.622;2023-04-03T14:34:15;12.70;1.00
38131;DHT22;23947;51.894;4.622;2023-04-03T14:36:43;12.60;1.00
38131;DHT22;23947;51.894;4.622;2023-04-03T14:39:16;12.70;1.00
38131;DHT22;23947;51.894;4.622;2023-04-03T14:41:42;12.80;1.00
38131;DHT22;23947;51.894;4.622;2023-04-03T14:44:08;13.00;1.00
38131;DHT22;23947;51.894;4.622;2023-04-03T14:46:39;13.10;1.00
38131;DHT22;23947;51.894;4.622;2023-04-03T14:49:35;13.20;1.00
38131;DHT22;23947;51.894;4.622;2023-04-03T14:51:59;13.20;1.00
38131;DHT22;23947;51.894;4.622;2023-04-03T14:54:25;12.90;1.00
38131;DHT22;23947;51.894;4.622;2023-04-03T14:56:53;12.60;1.00
38131;DHT22;23947;51.894;4.622;2023-04-03T14:59:21;12.50;1.00
38131;DHT22;23947;51.894;4.622;2023-04-03T15:01:47;12.40;1.00
38131;DHT22;23947;51.894;4.622;2023-04-03T15:04:18;12.30;1.00
38131;DHT22;23947;51.894;4.622;2023-04-03T15:06:45;12.30;1.00
38131;DHT22;23947;51.894;4.622;2023-04-03T15:09:23;12.10;1.00
38131;DHT22;23947;51.894;4.622;2023-04-03T15:11:50;12.20;1.00
38131;DHT22;23947;51.894;4.622;2023-04-03T15:14:16;12.10;1.00
38131;DHT22;23947;51.894;4.622;2023-04-03T15:16:42;12.00;1.00
38131;DHT22;23947;51.894;4.622;2023-04-03T15:19:08;11.90;1.00
38131;DHT22;23947;51.894;4.622;2023-04-03T15:21:34;11.80;1.00
38131;DHT22;23947;51.894;4.622;2023-04-03T15:24:00;11.80;1.00
38131;DHT22;23947;51.894;4.622;2023-04-03T15:26:26;11.70;1.00
38131;DHT22;23947;51.894;4.622;2023-04-03T15:28:52;11.50;1.00
38131;DHT22;23947;51.894;4.622;2023-04-03T15:31:17;11.40;1.00
38131;DHT22;23947;51.894;4.622;2023-04-03T15:33:43;11.20;1.00
38131;DHT22;23947;51.894;4.622;2023-04-03T15:36:09;11.20;1.00
38131;DHT22;23947;51.894;4.622;2023-04-03T15:38:34;11.10;1.00
38131;DHT22;23947;51.894;4.622;2023-04-03T15:41:01;11.00;1.00
38131;DHT22;23947;51.894;4.622;2023-04-03T15:43:26;10.90;1.00
38131;DHT22;23947;51.894;4.622;2023-04-03T15:45:52;10.80;1.00
38131;DHT22;23947;51.894;4.622;2023-04-03T15:48:21;10.80;1.00
38131;DHT22;23947;51.894;4.622;2023-04-03T15:50:46;10.70;1.00
38131;DHT22;23947;51.894;4.622;2023-04-03T15:53:12;10.70;1.00
38131;DHT22;23947;51.894;4.622;2023-04-03T15:55:38;10.70;1.00
38131;DHT22;23947;51.894;4.622;2023-04-03T15:58:04;10.70;1.00
38131;DHT22;23947;51.894;4.622;2023-04-03T16:00:31;10.60;1.00
38131;DHT22;23947;51.894;4.622;2023-04-03T16:03:05;10.50;1.00
38131;DHT22;23947;51.894;4.622;2023-04-03T16:05:35;10.50;1.00
38131;DHT22;23947;51.894;4.622;2023-04-03T16:08:02;10.40;1.00
38131;DHT22;23947;51.894;4.622;2023-04-03T16:10:28;10.40;1.00
38131;DHT22;23947;51.894;4.622;2023-04-03T16:12:54;10.30;1.00
38131;DHT22;23947;51.894;4.622;2023-04-03T16:15:19;10.20;1.00
38131;DHT22;23947;51.894;4.622;2023-04-03T16:17:45;10.10;1.00
38131;DHT22;23947;51.894;4.622;2023-04-03T16:20:14;10.10;1.00
38131;DHT22;23947;51.894;4.622;2023-04-03T16:22:40;10.10;1.00
38131;DHT22;23947;51.894;4.622;2023-04-03T16:25:07;10.00;1.00
38131;DHT22;23947;51.894;4.622;2023-04-03T16:27:33;10.00;1.00
38131;DHT22;23947;51.894;4.622;2023-04-03T16:29:59;9.90;1.00
38131;DHT22;23947;51.894;4.622;2023-04-03T16:32:29;9.90;1.00
38131;DHT22;23947;51.894;4.622;2023-04-03T16:34:55;9.80;1.00
38131;DHT22;23947;51.894;4.622;2023-04-03T16:37:20;9.80;1.00
38131;DHT22;23947;51.894;4.622;2023-04-03T16:39:46;9.70;1.00
38131;DHT22;23947;51.894;4.622;2023-04-03T16:42:12;9.70;1.00
38131;DHT22;23947;51.894;4.622;2023-04-03T16:44:37;9.60;1.00
38131;DHT22;23947;51.894;4.622;2023-04-03T16:47:06;9.70;1.00
38131;DHT22;23947;51.894;4.622;2023-04-03T16:49:32;9.60;1.00
38131;DHT22;23947;51.894;4.622;2023-04-03T16:51:59;9.60;1.00
38131;DHT22;23947;51.894;4.622;2023-04-03T16:54:26;9.50;1.00
38131;DHT22;23947;51.894;4.622;2023-04-03T16:56:52;9.40;99.90
38131;DHT22;23947;51.894;4.622;2023-04-03T16:59:17;9.40;99.90
38131;DHT22;23947;51.894;4.622;2023-04-03T17:01:43;9.40;1.00
38131;DHT22;23947;51.894;4.622;2023-04-03T17:04:09;9.30;1.00
38131;DHT22;23947;51.894;4.622;2023-04-03T17:06:34;9.30;1.00
38131;DHT22;23947;51.894;4.622;2023-04-03T17:09:00;9.20;1.00
38131;DHT22;23947;51.894;4.622;2023-04-03T17:11:27;9.20;1.00
38131;DHT22;23947;51.894;4.622;2023-04-03T17:13:53;9.10;1.00
38131;DHT22;23947;51.894;4.622;2023-04-03T17:16:19;9.10;1.00
38131;DHT22;23947;51.894;4.622;2023-04-03T17:18:45;9.00;1.00
38131;DHT22;23947;51.894;4.622;2023-04-03T17:21:13;9.00;1.00
38131;DHT22;23947;51.894;4.622;2023-04-03T17:23:41;8.90;1.00
38131;DHT22;23947;51.894;4.622;2023-04-03T17:26:08;8.90;1.00
38131;DHT22;23947;51.894;4.622;2023-04-03T17:28:34;8.90;1.00
38131;DHT22;23947;51.894;4.622;2023-04-03T17:31:01;8.90;1.00
38131;DHT22;23947;51.894;4.622;2023-04-03T17:33:28;8.80;1.00
38131;DHT22;23947;51.894;4.622;2023-04-03T17:35:56;8.80;1.00
38131;DHT22;23947;51.894;4.622;2023-04-03T17:38:23;8.70;1.00
38131;DHT22;23947;51.894;4.622;2023-04-03T17:40:48;8.80;1.00
38131;DHT22;23947;51.894;4.622;2023-04-03T17:43:14;8.70;1.00
38131;DHT22;23947;51.894;4.622;2023-04-03T17:45:40;8.70;1.00
38131;DHT22;23947;51.894;4.622;2023-04-03T17:48:06;8.60;1.00